Terminal Aerodrome Forecast
Issued by NWS

Home | Current Version | Previous Version | Text Only | Print | Product List | Glossary On
Versions: 1 2 3 4 5 6 7 8 9 10 11 12 13 14 15 16 17 18 19 20 21 22 23 24 25 26
000
FTUS45 KGGW 200253 AAA
TAFOLF
TAF AMD
KOLF 200253Z 2003/2024 VRB06KT P6SM FEW150
      TEMPO 2003/2005 27015G25KT 6SM TSRA OVC080CB
     FM201000 31007KT P6SM VCSH BKN100
     FM201800 36010KT P6SM BKN060=

USA.gov is the U.S. government's official web portal to all federal, state and local government web resources and services.